createdAt,value
2022-12-08T00:02:54.855Z,97183.90
2022-12-08T00:06:16.567Z,97181.35
2022-12-08T00:09:37.924Z,97182.40
2022-12-08T00:12:41.719Z,97178.87
2022-12-08T00:15:44.499Z,97177.00
2022-12-08T00:18:47.348Z,97173.89
2022-12-08T00:21:50.516Z,97179.99
2022-12-08T00:24:53.313Z,97186.21
2022-12-08T00:27:56.113Z,97186.52
2022-12-08T00:30:59.522Z,97184.23
2022-12-08T00:34:02.290Z,97188.84
2022-12-08T00:37:05.091Z,97195.18
2022-12-08T00:40:08.635Z,97192.84
2022-12-08T00:43:11.439Z,97193.84
2022-12-08T00:46:14.244Z,97194.13
2022-12-08T00:49:17.335Z,97194.19
2022-12-08T00:52:20.352Z,97195.02
2022-12-08T00:55:23.348Z,97198.06
2022-12-08T00:58:26.099Z,97191.27
2022-12-08T01:01:28.950Z,97193.75
2022-12-08T01:04:31.908Z,97193.70
2022-12-08T01:07:34.749Z,97195.48
2022-12-08T01:10:39.670Z,97193.08
2022-12-08T01:13:43.038Z,97195.67
2022-12-08T01:16:45.941Z,97200.58
2022-12-08T01:19:48.796Z,97199.46
2022-12-08T01:22:51.555Z,97202.05
2022-12-08T01:25:54.312Z,97204.51
2022-12-08T01:28:57.099Z,97208.36
2022-12-08T01:31:59.868Z,97209.30
2022-12-08T01:35:02.631Z,97208.40
2022-12-08T01:38:05.404Z,97208.14
2022-12-08T01:41:08.148Z,97208.72
2022-12-08T01:44:10.963Z,97203.27
2022-12-08T01:47:13.669Z,97203.88
2022-12-08T01:50:19.018Z,97205.37
2022-12-08T01:53:26.539Z,97202.59
2022-12-08T01:56:43.301Z,97201.48
2022-12-08T01:59:51.743Z,97202.59
2022-12-08T02:02:59.677Z,97205.40
2022-12-08T02:06:03.785Z,97201.34
2022-12-08T02:09:06.630Z,97202.95
2022-12-08T02:12:10.356Z,97202.83
2022-12-08T02:15:14.307Z,97201.61
2022-12-08T02:18:32.405Z,97199.80
2022-12-08T02:21:41.765Z,97197.00
2022-12-08T02:25:00.309Z,97197.08
2022-12-08T02:28:15.006Z,97193.46
2022-12-08T02:31:24.071Z,97194.41
2022-12-08T02:34:50.187Z,97199.61
2022-12-08T02:38:14.976Z,97203.12
2022-12-08T02:41:44.352Z,97203.15
2022-12-08T02:45:00.228Z,97195.13
2022-12-08T02:48:03.067Z,97187.80
2022-12-08T02:51:06.448Z,97183.23
2022-12-08T02:54:09.813Z,97183.89
2022-12-08T02:57:42.434Z,97186.82
2022-12-08T03:01:20.923Z,97186.52
2022-12-08T03:04:29.855Z,97186.19
2022-12-08T03:07:40.902Z,97187.20
2022-12-08T03:10:52.493Z,97184.98
2022-12-08T03:13:59.605Z,97181.43
2022-12-08T03:17:04.043Z,97181.45
2022-12-08T03:20:12.108Z,97181.99
2022-12-08T03:23:17.565Z,97180.35
2022-12-08T03:27:05.066Z,97180.05
2022-12-08T03:30:08.691Z,97183.59
2022-12-08T03:33:26.990Z,97179.66
2022-12-08T03:36:29.736Z,97178.70
2022-12-08T03:39:32.565Z,97177.21
2022-12-08T03:42:35.775Z,97179.91
2022-12-08T03:45:38.531Z,97173.05
2022-12-08T03:48:41.513Z,97169.73
2022-12-08T03:51:44.321Z,97172.38
2022-12-08T03:54:47.252Z,97168.70
2022-12-08T03:57:50.060Z,97166.64
2022-12-08T04:00:52.795Z,97167.84
2022-12-08T04:03:55.554Z,97166.28
2022-12-08T04:06:58.365Z,97165.31
2022-12-08T04:10:01.240Z,97162.65
2022-12-08T04:13:04.380Z,97161.02
2022-12-08T04:16:08.446Z,97156.06
2022-12-08T04:19:11.264Z,97154.23
2022-12-08T04:22:14.030Z,97151.10
2022-12-08T04:25:16.976Z,97145.35
2022-12-08T04:28:20.745Z,97149.10
2022-12-08T04:31:23.540Z,97146.76
2022-12-08T04:34:26.508Z,97146.16
2022-12-08T04:37:29.479Z,97138.69
2022-12-08T04:40:33.601Z,97143.45
2022-12-08T04:43:37.088Z,97144.45
2022-12-08T04:46:43.341Z,97145.42
2022-12-08T04:49:46.652Z,97144.77
2022-12-08T04:52:49.430Z,97137.87
2022-12-08T04:55:52.574Z,97139.16
2022-12-08T04:58:55.318Z,97139.25
2022-12-08T05:01:58.105Z,97144.29
2022-12-08T05:05:00.958Z,97141.67
2022-12-08T05:08:04.370Z,97145.33
2022-12-08T05:11:09.791Z,97148.71
2022-12-08T05:14:15.473Z,97146.63
2022-12-08T05:17:18.904Z,97146.69
2022-12-08T05:20:22.088Z,97145.38
2022-12-08T05:23:24.849Z,97139.01
2022-12-08T05:26:27.644Z,97141.15
2022-12-08T05:29:30.427Z,97142.69
2022-12-08T05:32:33.181Z,97146.27
2022-12-08T05:35:35.954Z,97150.27
2022-12-08T05:38:39.695Z,97153.32
2022-12-08T05:41:42.619Z,97155.72
2022-12-08T05:44:45.377Z,97152.21
2022-12-08T05:47:48.175Z,97154.08
2022-12-08T05:50:51.982Z,97153.08
2022-12-08T05:53:55.627Z,97156.25
2022-12-08T05:56:58.441Z,97154.57
2022-12-08T06:00:01.418Z,97158.50
2022-12-08T06:03:04.474Z,97159.05
2022-12-08T06:06:07.401Z,97160.71
2022-12-08T06:09:10.490Z,97162.02
2022-12-08T06:12:13.207Z,97162.96
2022-12-08T06:15:15.969Z,97162.89
2022-12-08T06:18:18.691Z,97161.96
2022-12-08T06:21:21.513Z,97163.34
2022-12-08T06:24:24.295Z,97164.71
2022-12-08T06:27:27.070Z,97164.01
2022-12-08T06:30:29.809Z,97162.10
2022-12-08T06:33:32.563Z,97164.16
2022-12-08T06:36:35.348Z,97165.45
2022-12-08T06:39:38.126Z,97166.91
2022-12-08T06:42:43.800Z,97168.54
2022-12-08T06:45:46.616Z,97170.67
2022-12-08T06:48:50.757Z,97172.98
2022-12-08T06:51:53.777Z,97172.27
2022-12-08T06:54:56.533Z,97170.79
2022-12-08T06:57:59.523Z,97173.63
2022-12-08T07:01:06.540Z,97176.63
2022-12-08T07:04:09.749Z,97178.66
2022-12-08T07:07:12.635Z,97178.92
2022-12-08T07:10:15.389Z,97180.92
2022-12-08T07:13:18.196Z,97180.75
2022-12-08T07:16:21.288Z,97182.16
2022-12-08T07:19:24.159Z,97181.40
2022-12-08T07:22:26.965Z,97179.11
2022-12-08T07:25:29.731Z,97182.15
2022-12-08T07:28:34.207Z,97176.38
2022-12-08T07:31:37.195Z,97176.70
2022-12-08T07:34:39.919Z,97175.18
2022-12-08T07:37:42.992Z,97181.44
2022-12-08T07:40:45.746Z,97183.30
2022-12-08T07:43:48.749Z,97185.27
2022-12-08T07:46:51.528Z,97182.65
2022-12-08T07:49:54.246Z,97187.09
2022-12-08T07:52:57.033Z,97188.15
2022-12-08T07:56:00.151Z,97188.11
2022-12-08T07:59:04.257Z,97187.38
2022-12-08T08:02:24.444Z,97177.55
2022-12-08T08:05:28.680Z,97177.50
2022-12-08T08:08:31.953Z,97178.34
2022-12-08T08:11:34.786Z,97179.34
2022-12-08T08:14:37.564Z,97176.38
2022-12-08T08:17:40.560Z,97170.66
2022-12-08T08:20:43.403Z,97168.35
2022-12-08T08:23:46.182Z,97166.24
2022-12-08T08:26:49.087Z,97166.25
2022-12-08T08:29:51.885Z,97164.30
2022-12-08T08:32:54.648Z,97164.91
2022-12-08T08:35:57.708Z,97166.99
2022-12-08T08:39:00.467Z,97163.66
2022-12-08T08:42:03.764Z,97168.45
2022-12-08T08:45:06.986Z,97169.14
2022-12-08T08:48:09.760Z,97169.60
2022-12-08T08:51:14.422Z,97172.71
2022-12-08T08:54:17.135Z,97173.55
2022-12-08T08:57:25.299Z,97176.75
2022-12-08T09:00:28.772Z,97169.20
2022-12-08T09:03:31.915Z,97170.95
2022-12-08T09:06:34.719Z,97169.53
2022-12-08T09:09:38.531Z,97166.73
2022-12-08T09:12:41.335Z,97170.53
2022-12-08T09:15:44.187Z,97168.95
2022-12-08T09:18:48.399Z,97169.48
2022-12-08T09:21:51.214Z,97164.03
2022-12-08T09:24:54.033Z,97166.20
2022-12-08T09:27:56.799Z,97162.64
2022-12-08T09:31:00.299Z,97167.39
2022-12-08T09:34:04.928Z,97165.59
2022-12-08T09:37:07.809Z,97163.48
2022-12-08T09:40:17.216Z,97158.39
2022-12-08T09:43:45.257Z,97156.74
2022-12-08T09:46:52.116Z,97153.65
2022-12-08T09:50:01.239Z,97149.27
2022-12-08T09:53:04.029Z,97148.06
2022-12-08T09:56:17.205Z,97149.23
2022-12-08T09:59:31.224Z,97151.27
2022-12-08T10:02:34.397Z,97147.77
2022-12-08T10:05:42.927Z,97147.33
2022-12-08T10:08:56.006Z,97146.98
2022-12-08T10:12:34.024Z,97145.79
2022-12-08T10:15:42.177Z,97141.34
2022-12-08T10:18:45.852Z,97138.12
2022-12-08T10:21:49.318Z,97133.44
2022-12-08T10:25:05.497Z,97131.30
2022-12-08T10:28:09.584Z,97124.19
2022-12-08T10:31:24.445Z,97122.96
2022-12-08T10:34:27.290Z,97121.39
2022-12-08T10:37:30.152Z,97122.63
2022-12-08T10:40:40.692Z,97117.94
2022-12-08T10:43:54.191Z,97116.31
2022-12-08T10:46:57.132Z,97114.83
2022-12-08T10:50:20.621Z,97112.59
2022-12-08T10:53:26.134Z,97108.40
2022-12-08T10:56:31.311Z,97105.23
2022-12-08T10:59:34.228Z,97103.09
2022-12-08T11:02:37.408Z,97103.94
2022-12-08T11:05:42.103Z,97099.48
2022-12-08T11:08:53.033Z,97092.32
2022-12-08T11:12:13.718Z,97090.54
2022-12-08T11:15:18.055Z,97090.70
2022-12-08T11:18:29.823Z,97090.70
2022-12-08T11:21:37.547Z,97087.09
2022-12-08T11:24:40.289Z,97083.48
2022-12-08T11:27:48.563Z,97084.95
2022-12-08T11:31:00.731Z,97084.17
2022-12-08T11:34:04.218Z,97084.35
2022-12-08T11:37:12.928Z,97083.28
2022-12-08T11:40:45.025Z,97081.48
2022-12-08T11:44:06.410Z,97077.29
2022-12-08T11:47:37.352Z,97075.60
2022-12-08T11:51:06.383Z,97072.84
2022-12-08T11:54:24.213Z,97068.47
2022-12-08T11:57:28.673Z,97069.74
2022-12-08T12:00:31.359Z,97069.43
2022-12-08T12:03:38.228Z,97067.23
2022-12-08T12:07:13.557Z,97065.61
2022-12-08T12:10:37.141Z,97066.54
2022-12-08T12:13:45.633Z,97059.88
2022-12-08T12:16:57.937Z,97059.60
2022-12-08T12:20:04.587Z,97057.16
2022-12-08T12:23:23.139Z,97050.91
2022-12-08T12:26:29.570Z,97050.27
2022-12-08T12:29:37.438Z,97049.70
2022-12-08T12:32:45.619Z,97044.85
2022-12-08T12:35:48.804Z,97042.11
2022-12-08T12:39:06.715Z,97038.23
2022-12-08T12:42:41.610Z,97038.52
2022-12-08T12:45:45.829Z,97034.80
2022-12-08T12:48:49.560Z,97033.04
2022-12-08T12:51:55.877Z,97027.59
2022-12-08T12:54:58.659Z,97025.89
2022-12-08T12:58:19.846Z,97022.30
2022-12-08T13:01:22.633Z,97025.48
2022-12-08T13:04:31.774Z,97022.61
2022-12-08T13:07:43.794Z,97021.38
2022-12-08T13:11:07.142Z,97019.09
2022-12-08T13:14:28.038Z,97020.30
2022-12-08T13:17:33.833Z,97025.77
2022-12-08T13:20:48.268Z,97023.44
2022-12-08T13:24:12.902Z,97025.63
2022-12-08T13:27:32.112Z,97015.04
2022-12-08T13:31:05.966Z,97015.25
2022-12-08T13:34:42.461Z,97018.11
2022-12-08T13:37:54.541Z,97023.41
2022-12-08T13:41:03.167Z,97022.16
2022-12-08T13:48:13.809Z,97016.82
2022-12-08T13:58:28.475Z,97019.52
2022-12-08T14:01:31.403Z,97015.37
2022-12-08T14:04:54.383Z,97012.02
2022-12-08T14:07:57.224Z,97009.87
2022-12-08T14:11:03.361Z,97009.71
2022-12-08T14:14:09.076Z,97011.47
2022-12-08T14:17:15.540Z,97013.82
2022-12-08T14:20:33.812Z,97011.30
2022-12-08T14:23:45.262Z,97012.37
2022-12-08T14:26:53.268Z,97012.50
2022-12-08T14:29:58.591Z,97013.05
2022-12-08T14:33:03.503Z,97012.45
2022-12-08T14:36:06.705Z,97010.30
2022-12-08T14:39:09.570Z,97019.02
2022-12-08T14:42:22.779Z,97021.66
2022-12-08T14:45:25.503Z,97019.65
2022-12-08T14:48:28.218Z,97018.02
2022-12-08T14:51:33.342Z,97016.77
2022-12-08T14:54:36.500Z,97014.47
2022-12-08T14:57:39.679Z,97006.52
2022-12-08T15:00:48.025Z,97010.04
2022-12-08T15:03:51.790Z,97004.34
2022-12-08T15:07:28.981Z,97005.25
2022-12-08T15:10:38.061Z,97005.21
2022-12-08T15:13:49.807Z,97008.55
2022-12-08T15:16:54.319Z,97008.73
2022-12-08T15:19:58.905Z,97006.66
2022-12-08T15:23:02.472Z,97004.83
2022-12-08T15:26:05.971Z,97001.71
2022-12-08T15:29:22.430Z,96997.88
2022-12-08T15:32:25.243Z,96990.89
2022-12-08T15:35:28.523Z,96990.04
2022-12-08T15:38:31.485Z,96986.92
2022-12-08T15:41:34.267Z,96989.56
2022-12-08T15:44:37.299Z,96987.22
2022-12-08T15:47:40.652Z,96990.38
2022-12-08T15:50:43.685Z,96987.47
2022-12-08T15:53:46.426Z,96986.36
2022-12-08T15:57:18.409Z,96984.88
2022-12-08T16:07:28.440Z,96967.11
2022-12-08T16:10:52.524Z,96970.73
2022-12-08T16:14:03.140Z,96965.85
2022-12-08T16:17:18.154Z,96967.77
2022-12-08T16:20:28.177Z,96971.88
2022-12-08T16:23:43.657Z,96973.70
2022-12-08T16:30:15.931Z,96975.53
2022-12-08T16:33:19.426Z,96976.92
2022-12-08T16:36:22.201Z,96975.64
2022-12-08T16:39:25.033Z,96974.16
2022-12-08T16:42:50.304Z,96973.10
2022-12-08T16:45:53.314Z,96966.73
2022-12-08T16:48:59.193Z,96974.61
2022-12-08T16:52:02.040Z,96976.41
2022-12-08T16:55:13.533Z,96976.58
2022-12-08T16:58:18.450Z,96971.44
2022-12-08T17:01:21.307Z,96972.77
2022-12-08T17:04:31.451Z,96978.65
2022-12-08T17:07:36.036Z,96977.08
2022-12-08T17:10:39.516Z,96976.15
2022-12-08T17:13:42.500Z,96978.35
2022-12-08T17:16:45.894Z,96979.73
2022-12-08T17:19:48.741Z,96980.24
2022-12-08T17:22:55.494Z,96981.62
2022-12-08T17:26:00.332Z,96982.70
2022-12-08T17:29:04.466Z,96978.92
2022-12-08T17:32:07.384Z,96973.02
2022-12-08T17:35:10.826Z,96976.60
2022-12-08T17:38:13.564Z,96981.91
2022-12-08T17:41:16.337Z,96980.06
2022-12-08T17:44:19.867Z,96984.71
2022-12-08T17:47:23.116Z,96984.36
2022-12-08T17:50:25.919Z,96986.52
2022-12-08T17:53:30.656Z,96987.61
2022-12-08T17:56:37.016Z,96985.41
2022-12-08T17:59:39.966Z,96989.70
2022-12-08T18:02:42.833Z,96985.23
2022-12-08T18:05:46.091Z,96986.14
2022-12-08T18:08:48.882Z,96981.88
2022-12-08T18:11:51.764Z,96974.73
2022-12-08T18:14:54.719Z,96971.29
2022-12-08T18:17:57.566Z,96977.69
2022-12-08T18:21:00.435Z,96973.03
2022-12-08T18:24:04.380Z,96967.08
2022-12-08T18:27:07.127Z,96965.83
2022-12-08T18:30:14.473Z,96971.36
2022-12-08T18:33:17.255Z,96974.08
2022-12-08T18:36:26.310Z,96968.20
2022-12-08T18:39:31.644Z,96966.68
2022-12-08T18:42:34.497Z,96963.44
2022-12-08T18:45:38.996Z,96958.33
2022-12-08T18:48:50.351Z,96951.44
2022-12-08T18:51:53.272Z,96954.06
2022-12-08T18:55:06.203Z,96951.23
2022-12-08T18:58:11.021Z,96945.83
2022-12-08T19:01:14.902Z,96945.83
2022-12-08T19:04:28.425Z,96948.09
2022-12-08T19:07:31.979Z,96949.63
2022-12-08T19:10:38.127Z,96949.94
2022-12-08T19:13:40.893Z,96952.90
2022-12-08T19:16:43.678Z,96952.39
2022-12-08T19:19:46.587Z,96950.10
2022-12-08T19:22:49.456Z,96949.96
2022-12-08T19:25:52.226Z,96949.53
2022-12-08T19:28:55.699Z,96945.00
2022-12-08T19:31:58.986Z,96942.20
2022-12-08T19:35:07.229Z,96941.23
2022-12-08T19:38:10.045Z,96943.88
2022-12-08T19:41:31.682Z,96943.88
2022-12-08T19:44:34.431Z,96939.08
2022-12-08T19:47:38.206Z,96943.45
2022-12-08T19:50:41.509Z,96939.11
2022-12-08T19:53:47.566Z,96936.40
2022-12-08T19:56:50.865Z,96935.59
2022-12-08T19:59:56.435Z,96937.86
2022-12-08T20:03:02.156Z,96929.55
2022-12-08T20:06:05.073Z,96927.45
2022-12-08T20:09:08.285Z,96935.77
2022-12-08T20:12:11.121Z,96935.20
2022-12-08T20:15:14.945Z,96940.17
2022-12-08T20:18:18.110Z,96936.78
2022-12-08T20:21:22.205Z,96934.88
2022-12-08T20:24:25.098Z,96934.97
2022-12-08T20:27:29.173Z,96934.52
2022-12-08T20:30:32.157Z,96932.00
2022-12-08T20:33:34.940Z,96933.71
2022-12-08T20:36:37.745Z,96937.31
2022-12-08T20:39:40.518Z,96942.00
2022-12-08T20:42:43.363Z,96944.25
2022-12-08T20:45:46.242Z,96945.42
2022-12-08T20:48:49.170Z,96946.15
2022-12-08T20:51:52.094Z,96945.08
2022-12-08T20:54:56.020Z,96945.25
2022-12-08T20:57:59.119Z,96942.02
2022-12-08T21:01:08.923Z,96938.73
2022-12-08T21:04:12.916Z,96940.56
2022-12-08T21:07:16.061Z,96939.34
2022-12-08T21:10:18.876Z,96937.60
2022-12-08T21:13:22.153Z,96938.61
2022-12-08T21:16:25.182Z,96941.95
2022-12-08T21:19:28.313Z,96938.96
2022-12-08T21:22:31.240Z,96944.64
2022-12-08T21:25:41.091Z,96944.30
2022-12-08T21:28:44.429Z,96945.64
2022-12-08T21:31:47.446Z,96942.89
2022-12-08T21:34:50.381Z,96944.92
2022-12-08T21:37:53.265Z,96950.95
2022-12-08T21:41:01.330Z,96953.52
2022-12-08T21:44:05.481Z,96955.00
2022-12-08T21:47:08.529Z,96949.36
2022-12-08T21:50:12.756Z,96949.52
2022-12-08T21:53:15.957Z,96944.64
2022-12-08T21:56:18.719Z,96938.77
2022-12-08T21:59:21.605Z,96936.61
2022-12-08T22:02:24.639Z,96936.59
2022-12-08T22:05:27.711Z,96928.20
2022-12-08T22:08:30.844Z,96930.86
2022-12-08T22:11:33.728Z,96933.73
2022-12-08T22:14:36.575Z,96934.45
2022-12-08T22:17:41.728Z,96929.53
2022-12-08T22:20:44.876Z,96931.11
2022-12-08T22:23:47.870Z,96931.77
2022-12-08T22:26:50.640Z,96932.24
2022-12-08T22:29:55.236Z,96932.48
2022-12-08T22:32:58.219Z,96932.13
2022-12-08T22:36:09.836Z,96938.58
2022-12-08T22:39:13.685Z,96942.67
2022-12-08T22:42:16.646Z,96945.58
2022-12-08T22:45:19.516Z,96942.80
2022-12-08T22:48:22.506Z,96947.66
2022-12-08T22:51:25.327Z,96944.52
2022-12-08T22:54:28.130Z,96943.22
2022-12-08T22:57:31.018Z,96941.89
2022-12-08T23:00:33.937Z,96941.40
2022-12-08T23:03:36.781Z,96938.60
2022-12-08T23:06:39.563Z,96930.56
2022-12-08T23:09:42.406Z,96927.72
2022-12-08T23:12:45.452Z,96931.29
2022-12-08T23:15:48.327Z,96927.73
2022-12-08T23:18:51.463Z,96924.28
2022-12-08T23:21:54.261Z,96918.00
2022-12-08T23:24:57.452Z,96916.72
2022-12-08T23:28:00.356Z,96909.80
2022-12-08T23:31:08.390Z,96911.08
2022-12-08T23:34:11.628Z,96910.64
2022-12-08T23:37:14.397Z,96912.41
2022-12-08T23:40:17.159Z,96909.46
2022-12-08T23:43:20.144Z,96903.23
2022-12-08T23:46:23.614Z,96904.88
2022-12-08T23:49:26.605Z,96907.23
2022-12-08T23:52:29.540Z,96907.92
2022-12-08T23:55:32.549Z,96905.77
2022-12-08T23:58:36.166Z,96907.27
